sensor_id;sensor_type;location;lat;lon;timestamp;P1;durP1;ratioP1;P2;durP2;ratioP2
15553;SDS011;7878;44.632;10.942;2023-03-14T00:01:08;17.87;;;13.67;;
15553;SDS011;7878;44.632;10.942;2023-03-14T00:03:38;19.63;;;13.07;;
15553;SDS011;7878;44.632;10.942;2023-03-14T00:06:04;24.40;;;14.50;;
15553;SDS011;7878;44.632;10.942;2023-03-14T00:08:31;21.10;;;13.23;;
15553;SDS011;7878;44.632;10.942;2023-03-14T00:10:57;18.43;;;13.87;;
15553;SDS011;7878;44.632;10.942;2023-03-14T00:13:23;20.67;;;13.57;;
15553;SDS011;7878;44.632;10.942;2023-03-14T00:15:49;16.83;;;13.40;;
15553;SDS011;7878;44.632;10.942;2023-03-14T00:18:15;17.00;;;14.03;;
15553;SDS011;7878;44.632;10.942;2023-03-14T00:20:41;18.33;;;13.37;;
15553;SDS011;7878;44.632;10.942;2023-03-14T00:23:06;19.97;;;13.77;;
15553;SDS011;7878;44.632;10.942;2023-03-14T00:25:34;20.30;;;14.80;;
15553;SDS011;7878;44.632;10.942;2023-03-14T00:28:00;17.87;;;13.90;;
15553;SDS011;7878;44.632;10.942;2023-03-14T00:30:26;22.50;;;13.97;;
15553;SDS011;7878;44.632;10.942;2023-03-14T00:32:51;18.97;;;13.87;;
15553;SDS011;7878;44.632;10.942;2023-03-14T00:35:17;19.87;;;14.13;;
15553;SDS011;7878;44.632;10.942;2023-03-14T00:37:43;19.17;;;14.07;;
15553;SDS011;7878;44.632;10.942;2023-03-14T00:40:09;21.97;;;13.50;;
15553;SDS011;7878;44.632;10.942;2023-03-14T00:42:35;22.07;;;14.10;;
15553;SDS011;7878;44.632;10.942;2023-03-14T00:45:01;18.83;;;13.77;;
15553;SDS011;7878;44.632;10.942;2023-03-14T00:47:26;22.03;;;13.77;;
15553;SDS011;7878;44.632;10.942;2023-03-14T00:49:52;21.37;;;13.80;;
15553;SDS011;7878;44.632;10.942;2023-03-14T00:52:18;23.77;;;14.43;;
15553;SDS011;7878;44.632;10.942;2023-03-14T00:54:43;19.10;;;14.03;;
15553;SDS011;7878;44.632;10.942;2023-03-14T00:57:09;15.17;;;13.17;;
15553;SDS011;7878;44.632;10.942;2023-03-14T00:59:35;19.63;;;13.27;;
15553;SDS011;7878;44.632;10.942;2023-03-14T01:02:00;23.07;;;13.97;;
15553;SDS011;7878;44.632;10.942;2023-03-14T01:04:26;23.30;;;14.07;;
15553;SDS011;7878;44.632;10.942;2023-03-14T01:06:52;15.67;;;12.97;;
15553;SDS011;7878;44.632;10.942;2023-03-14T01:09:17;25.43;;;14.13;;
15553;SDS011;7878;44.632;10.942;2023-03-14T01:11:43;19.50;;;13.43;;
15553;SDS011;7878;44.632;10.942;2023-03-14T01:14:11;21.17;;;14.17;;
15553;SDS011;7878;44.632;10.942;2023-03-14T01:16:37;19.43;;;12.93;;
15553;SDS011;7878;44.632;10.942;2023-03-14T01:19:03;20.27;;;13.83;;
15553;SDS011;7878;44.632;10.942;2023-03-14T01:21:30;24.70;;;14.47;;
15553;SDS011;7878;44.632;10.942;2023-03-14T01:23:58;18.87;;;13.80;;
15553;SDS011;7878;44.632;10.942;2023-03-14T01:26:25;18.53;;;13.50;;
15553;SDS011;7878;44.632;10.942;2023-03-14T01:28:54;21.33;;;13.53;;
15553;SDS011;7878;44.632;10.942;2023-03-14T01:31:20;18.10;;;13.30;;
15553;SDS011;7878;44.632;10.942;2023-03-14T01:33:46;15.63;;;11.87;;
15553;SDS011;7878;44.632;10.942;2023-03-14T01:36:12;21.20;;;12.87;;
15553;SDS011;7878;44.632;10.942;2023-03-14T01:38:39;17.07;;;11.90;;
15553;SDS011;7878;44.632;10.942;2023-03-14T01:41:06;18.80;;;12.73;;
15553;SDS011;7878;44.632;10.942;2023-03-14T01:43:34;15.47;;;12.73;;
15553;SDS011;7878;44.632;10.942;2023-03-14T01:51:31;18.60;;;12.40;;
15553;SDS011;7878;44.632;10.942;2023-03-14T01:54:09;21.00;;;12.77;;
15553;SDS011;7878;44.632;10.942;2023-03-14T01:56:41;24.60;;;12.67;;
15553;SDS011;7878;44.632;10.942;2023-03-14T01:59:11;15.93;;;12.70;;
15553;SDS011;7878;44.632;10.942;2023-03-14T02:01:37;17.43;;;13.53;;
15553;SDS011;7878;44.632;10.942;2023-03-14T02:04:06;17.40;;;12.90;;
15553;SDS011;7878;44.632;10.942;2023-03-14T02:06:57;23.33;;;12.70;;
15553;SDS011;7878;44.632;10.942;2023-03-14T02:09:38;18.53;;;13.00;;
15553;SDS011;7878;44.632;10.942;2023-03-14T02:12:05;18.73;;;13.90;;
15553;SDS011;7878;44.632;10.942;2023-03-14T02:14:33;16.07;;;12.67;;
15553;SDS011;7878;44.632;10.942;2023-03-14T02:17:01;18.80;;;12.43;;
15553;SDS011;7878;44.632;10.942;2023-03-14T02:22:16;17.40;;;12.70;;
15553;SDS011;7878;44.632;10.942;2023-03-14T02:27:33;14.07;;;11.87;;
15553;SDS011;7878;44.632;10.942;2023-03-14T02:32:26;20.33;;;11.77;;
15553;SDS011;7878;44.632;10.942;2023-03-14T02:34:55;22.60;;;12.50;;
15553;SDS011;7878;44.632;10.942;2023-03-14T02:37:24;16.07;;;11.57;;
15553;SDS011;7878;44.632;10.942;2023-03-14T02:39:55;19.03;;;12.13;;
15553;SDS011;7878;44.632;10.942;2023-03-14T02:42:21;16.53;;;11.43;;
15553;SDS011;7878;44.632;10.942;2023-03-14T02:45:33;16.60;;;11.60;;
15553;SDS011;7878;44.632;10.942;2023-03-14T02:47:32;16.90;;;12.00;;
15553;SDS011;7878;44.632;10.942;2023-03-14T02:50:07;17.87;;;11.47;;
15553;SDS011;7878;44.632;10.942;2023-03-14T02:52:39;15.43;;;10.97;;
15553;SDS011;7878;44.632;10.942;2023-03-14T02:55:05;16.30;;;10.90;;
15553;SDS011;7878;44.632;10.942;2023-03-14T02:57:31;14.93;;;11.53;;
15553;SDS011;7878;44.632;10.942;2023-03-14T02:59:59;13.17;;;10.60;;
15553;SDS011;7878;44.632;10.942;2023-03-14T03:02:26;13.10;;;10.53;;
15553;SDS011;7878;44.632;10.942;2023-03-14T03:04:52;20.27;;;11.57;;
15553;SDS011;7878;44.632;10.942;2023-03-14T03:07:18;18.40;;;10.47;;
15553;SDS011;7878;44.632;10.942;2023-03-14T03:09:44;19.03;;;10.80;;
15553;SDS011;7878;44.632;10.942;2023-03-14T03:12:10;13.50;;;10.40;;
15553;SDS011;7878;44.632;10.942;2023-03-14T03:14:36;15.67;;;11.27;;
15553;SDS011;7878;44.632;10.942;2023-03-14T03:17:03;12.87;;;10.20;;
15553;SDS011;7878;44.632;10.942;2023-03-14T03:19:30;13.10;;;10.63;;
15553;SDS011;7878;44.632;10.942;2023-03-14T03:21:56;18.37;;;10.43;;
15553;SDS011;7878;44.632;10.942;2023-03-14T03:24:23;11.40;;;10.20;;
15553;SDS011;7878;44.632;10.942;2023-03-14T03:26:49;16.00;;;11.03;;
15553;SDS011;7878;44.632;10.942;2023-03-14T03:29:15;13.70;;;10.17;;
15553;SDS011;7878;44.632;10.942;2023-03-14T03:31:41;15.90;;;10.83;;
15553;SDS011;7878;44.632;10.942;2023-03-14T03:34:07;14.27;;;10.77;;
15553;SDS011;7878;44.632;10.942;2023-03-14T03:36:32;16.73;;;11.43;;
15553;SDS011;7878;44.632;10.942;2023-03-14T03:38:58;16.57;;;11.33;;
15553;SDS011;7878;44.632;10.942;2023-03-14T03:41:24;22.13;;;12.97;;
15553;SDS011;7878;44.632;10.942;2023-03-14T03:43:50;18.10;;;12.93;;
15553;SDS011;7878;44.632;10.942;2023-03-14T03:46:16;17.60;;;12.63;;
15553;SDS011;7878;44.632;10.942;2023-03-14T03:48:42;20.33;;;14.50;;
15553;SDS011;7878;44.632;10.942;2023-03-14T03:51:11;17.67;;;14.30;;
15553;SDS011;7878;44.632;10.942;2023-03-14T03:53:38;22.63;;;17.43;;
15553;SDS011;7878;44.632;10.942;2023-03-14T03:56:04;21.63;;;15.97;;
15553;SDS011;7878;44.632;10.942;2023-03-14T03:58:30;25.17;;;17.77;;
15553;SDS011;7878;44.632;10.942;2023-03-14T04:00:56;22.90;;;17.50;;
15553;SDS011;7878;44.632;10.942;2023-03-14T04:03:21;29.40;;;18.23;;
15553;SDS011;7878;44.632;10.942;2023-03-14T04:05:57;26.03;;;18.27;;
15553;SDS011;7878;44.632;10.942;2023-03-14T04:08:24;27.47;;;18.83;;
15553;SDS011;7878;44.632;10.942;2023-03-14T04:10:49;28.00;;;19.33;;
15553;SDS011;7878;44.632;10.942;2023-03-14T04:13:18;27.60;;;19.87;;
15553;SDS011;7878;44.632;10.942;2023-03-14T04:15:44;33.57;;;19.77;;
15553;SDS011;7878;44.632;10.942;2023-03-14T04:18:09;39.87;;;21.60;;
15553;SDS011;7878;44.632;10.942;2023-03-14T04:20:35;23.60;;;19.33;;
15553;SDS011;7878;44.632;10.942;2023-03-14T04:23:01;36.87;;;21.53;;
15553;SDS011;7878;44.632;10.942;2023-03-14T04:25:26;39.10;;;21.97;;
15553;SDS011;7878;44.632;10.942;2023-03-14T04:27:52;60.33;;;22.73;;
15553;SDS011;7878;44.632;10.942;2023-03-14T04:30:17;31.50;;;22.40;;
15553;SDS011;7878;44.632;10.942;2023-03-14T04:32:43;29.57;;;22.00;;
15553;SDS011;7878;44.632;10.942;2023-03-14T04:35:09;29.33;;;21.53;;
15553;SDS011;7878;44.632;10.942;2023-03-14T04:37:35;28.17;;;20.87;;
15553;SDS011;7878;44.632;10.942;2023-03-14T04:40:00;27.13;;;21.17;;
15553;SDS011;7878;44.632;10.942;2023-03-14T04:42:26;28.90;;;21.00;;
15553;SDS011;7878;44.632;10.942;2023-03-14T04:44:52;29.30;;;22.37;;
15553;SDS011;7878;44.632;10.942;2023-03-14T04:47:17;36.03;;;23.50;;
15553;SDS011;7878;44.632;10.942;2023-03-14T04:49:43;74.37;;;26.07;;
15553;SDS011;7878;44.632;10.942;2023-03-14T04:52:08;54.97;;;24.00;;
15553;SDS011;7878;44.632;10.942;2023-03-14T04:54:34;33.27;;;25.00;;
15553;SDS011;7878;44.632;10.942;2023-03-14T04:57:00;46.90;;;26.10;;
15553;SDS011;7878;44.632;10.942;2023-03-14T04:59:26;42.80;;;27.17;;
15553;SDS011;7878;44.632;10.942;2023-03-14T05:01:51;48.13;;;29.10;;
15553;SDS011;7878;44.632;10.942;2023-03-14T05:04:17;51.07;;;29.73;;
15553;SDS011;7878;44.632;10.942;2023-03-14T05:06:43;49.83;;;30.03;;
15553;SDS011;7878;44.632;10.942;2023-03-14T05:09:09;58.60;;;31.17;;
15553;SDS011;7878;44.632;10.942;2023-03-14T05:11:35;79.43;;;34.90;;
15553;SDS011;7878;44.632;10.942;2023-03-14T05:14:00;73.83;;;36.30;;
15553;SDS011;7878;44.632;10.942;2023-03-14T05:16:26;85.03;;;36.87;;
15553;SDS011;7878;44.632;10.942;2023-03-14T05:18:51;65.17;;;36.43;;
15553;SDS011;7878;44.632;10.942;2023-03-14T05:21:17;64.07;;;33.90;;
15553;SDS011;7878;44.632;10.942;2023-03-14T05:23:43;60.47;;;35.33;;
15553;SDS011;7878;44.632;10.942;2023-03-14T05:26:08;62.80;;;36.57;;
15553;SDS011;7878;44.632;10.942;2023-03-14T05:28:34;64.20;;;35.73;;
15553;SDS011;7878;44.632;10.942;2023-03-14T05:31:00;78.23;;;35.70;;
15553;SDS011;7878;44.632;10.942;2023-03-14T05:33:25;82.33;;;35.00;;
15553;SDS011;7878;44.632;10.942;2023-03-14T05:35:51;61.53;;;32.23;;
15553;SDS011;7878;44.632;10.942;2023-03-14T05:38:17;51.70;;;30.57;;
15553;SDS011;7878;44.632;10.942;2023-03-14T05:40:44;52.33;;;28.83;;
15553;SDS011;7878;44.632;10.942;2023-03-14T05:43:10;39.23;;;26.47;;
15553;SDS011;7878;44.632;10.942;2023-03-14T05:45:36;37.93;;;23.03;;
15553;SDS011;7878;44.632;10.942;2023-03-14T05:48:02;27.30;;;20.30;;
15553;SDS011;7878;44.632;10.942;2023-03-14T05:50:27;29.03;;;19.07;;
15553;SDS011;7878;44.632;10.942;2023-03-14T05:52:53;25.73;;;19.43;;
15553;SDS011;7878;44.632;10.942;2023-03-14T05:55:19;25.47;;;19.00;;
15553;SDS011;7878;44.632;10.942;2023-03-14T05:57:44;25.80;;;18.47;;
15553;SDS011;7878;44.632;10.942;2023-03-14T06:00:10;24.73;;;17.47;;
15553;SDS011;7878;44.632;10.942;2023-03-14T06:02:36;19.57;;;15.47;;
15553;SDS011;7878;44.632;10.942;2023-03-14T06:05:02;18.43;;;14.90;;
15553;SDS011;7878;44.632;10.942;2023-03-14T06:07:27;18.87;;;14.47;;
15553;SDS011;7878;44.632;10.942;2023-03-14T06:09:53;19.30;;;13.53;;
15553;SDS011;7878;44.632;10.942;2023-03-14T06:12:19;16.10;;;11.93;;
15553;SDS011;7878;44.632;10.942;2023-03-14T06:14:44;18.50;;;11.87;;
15553;SDS011;7878;44.632;10.942;2023-03-14T06:17:10;21.37;;;11.47;;
15553;SDS011;7878;44.632;10.942;2023-03-14T06:19:36;17.13;;;12.67;;
15553;SDS011;7878;44.632;10.942;2023-03-14T06:22:01;14.03;;;11.03;;
15553;SDS011;7878;44.632;10.942;2023-03-14T06:24:27;15.70;;;11.10;;
15553;SDS011;7878;44.632;10.942;2023-03-14T06:26:53;13.43;;;10.57;;
15553;SDS011;7878;44.632;10.942;2023-03-14T06:29:18;29.93;;;11.77;;
15553;SDS011;7878;44.632;10.942;2023-03-14T06:31:44;18.90;;;11.43;;
15553;SDS011;7878;44.632;10.942;2023-03-14T06:34:10;18.70;;;11.80;;
15553;SDS011;7878;44.632;10.942;2023-03-14T06:36:35;22.17;;;12.80;;
15553;SDS011;7878;44.632;10.942;2023-03-14T06:39:01;19.00;;;13.10;;
15553;SDS011;7878;44.632;10.942;2023-03-14T06:41:27;23.50;;;13.87;;
15553;SDS011;7878;44.632;10.942;2023-03-14T06:43:52;26.90;;;15.63;;
15553;SDS011;7878;44.632;10.942;2023-03-14T06:46:18;26.37;;;16.53;;
15553;SDS011;7878;44.632;10.942;2023-03-14T06:48:44;22.00;;;16.00;;
15553;SDS011;7878;44.632;10.942;2023-03-14T06:51:09;23.40;;;15.13;;
15553;SDS011;7878;44.632;10.942;2023-03-14T06:53:35;23.77;;;16.50;;
15553;SDS011;7878;44.632;10.942;2023-03-14T06:56:01;24.00;;;16.40;;
15553;SDS011;7878;44.632;10.942;2023-03-14T06:58:27;21.43;;;16.83;;
15553;SDS011;7878;44.632;10.942;2023-03-14T07:00:53;23.97;;;16.67;;
15553;SDS011;7878;44.632;10.942;2023-03-14T07:03:19;22.70;;;17.03;;
15553;SDS011;7878;44.632;10.942;2023-03-14T07:05:45;20.80;;;18.50;;
15553;SDS011;7878;44.632;10.942;2023-03-14T07:08:11;20.23;;;16.60;;
15553;SDS011;7878;44.632;10.942;2023-03-14T07:10:37;19.40;;;17.40;;
15553;SDS011;7878;44.632;10.942;2023-03-14T07:13:02;23.30;;;17.70;;
15553;SDS011;7878;44.632;10.942;2023-03-14T07:15:28;28.83;;;17.67;;
15553;SDS011;7878;44.632;10.942;2023-03-14T07:17:54;29.27;;;17.93;;
15553;SDS011;7878;44.632;10.942;2023-03-14T07:20:19;35.00;;;18.37;;
15553;SDS011;7878;44.632;10.942;2023-03-14T07:22:48;19.70;;;16.93;;
15553;SDS011;7878;44.632;10.942;2023-03-14T07:25:14;21.27;;;16.50;;
15553;SDS011;7878;44.632;10.942;2023-03-14T07:27:42;19.70;;;16.70;;
15553;SDS011;7878;44.632;10.942;2023-03-14T07:30:09;22.73;;;17.27;;
15553;SDS011;7878;44.632;10.942;2023-03-14T07:32:36;19.73;;;17.10;;
15553;SDS011;7878;44.632;10.942;2023-03-14T07:35:02;21.50;;;17.53;;
15553;SDS011;7878;44.632;10.942;2023-03-14T07:37:28;21.53;;;18.47;;
15553;SDS011;7878;44.632;10.942;2023-03-14T07:39:54;28.73;;;18.00;;
15553;SDS011;7878;44.632;10.942;2023-03-14T07:42:19;23.57;;;18.83;;
15553;SDS011;7878;44.632;10.942;2023-03-14T07:44:45;25.97;;;18.70;;
15553;SDS011;7878;44.632;10.942;2023-03-14T07:47:11;26.67;;;17.77;;
15553;SDS011;7878;44.632;10.942;2023-03-14T07:49:37;23.80;;;18.40;;
15553;SDS011;7878;44.632;10.942;2023-03-14T07:52:02;23.23;;;17.10;;
15553;SDS011;7878;44.632;10.942;2023-03-14T07:54:28;20.80;;;16.00;;
15553;SDS011;7878;44.632;10.942;2023-03-14T07:56:54;19.17;;;16.77;;
15553;SDS011;7878;44.632;10.942;2023-03-14T07:59:19;23.10;;;16.60;;
15553;SDS011;7878;44.632;10.942;2023-03-14T08:01:45;22.47;;;17.73;;
15553;SDS011;7878;44.632;10.942;2023-03-14T08:04:11;23.00;;;18.33;;
15553;SDS011;7878;44.632;10.942;2023-03-14T08:06:37;30.20;;;20.10;;
15553;SDS011;7878;44.632;10.942;2023-03-14T08:09:03;22.47;;;17.67;;
15553;SDS011;7878;44.632;10.942;2023-03-14T08:11:29;23.37;;;17.40;;
15553;SDS011;7878;44.632;10.942;2023-03-14T08:13:55;22.47;;;17.53;;
15553;SDS011;7878;44.632;10.942;2023-03-14T08:16:21;28.03;;;18.40;;
15553;SDS011;7878;44.632;10.942;2023-03-14T08:18:47;29.13;;;17.80;;
15553;SDS011;7878;44.632;10.942;2023-03-14T08:21:12;24.60;;;16.63;;
15553;SDS011;7878;44.632;10.942;2023-03-14T08:23:39;18.67;;;15.73;;
15553;SDS011;7878;44.632;10.942;2023-03-14T08:26:05;25.73;;;16.23;;
15553;SDS011;7878;44.632;10.942;2023-03-14T08:28:31;26.07;;;16.37;;
15553;SDS011;7878;44.632;10.942;2023-03-14T08:30:58;26.63;;;15.33;;
15553;SDS011;7878;44.632;10.942;2023-03-14T08:33:24;21.57;;;15.37;;
15553;SDS011;7878;44.632;10.942;2023-03-14T08:35:54;18.10;;;13.47;;
15553;SDS011;7878;44.632;10.942;2023-03-14T08:38:21;18.40;;;13.40;;
15553;SDS011;7878;44.632;10.942;2023-03-14T08:40:47;19.90;;;13.63;;
15553;SDS011;7878;44.632;10.942;2023-03-14T08:43:12;19.13;;;13.50;;
15553;SDS011;7878;44.632;10.942;2023-03-14T08:45:38;14.60;;;12.97;;
15553;SDS011;7878;44.632;10.942;2023-03-14T08:48:04;17.55;;;12.32;;
15553;SDS011;7878;44.632;10.942;2023-03-14T08:50:30;16.73;;;11.27;;
15553;SDS011;7878;44.632;10.942;2023-03-14T08:52:55;19.25;;;12.45;;
15553;SDS011;7878;44.632;10.942;2023-03-14T08:55:24;24.55;;;17.30;;
15553;SDS011;7878;44.632;10.942;2023-03-14T08:57:52;15.95;;;10.25;;
15553;SDS011;7878;44.632;10.942;2023-03-14T09:00:18;18.70;;;13.98;;
15553;SDS011;7878;44.632;10.942;2023-03-14T09:02:44;14.15;;;9.98;;
15553;SDS011;7878;44.632;10.942;2023-03-14T09:05:10;15.25;;;11.65;;
15553;SDS011;7878;44.632;10.942;2023-03-14T09:07:37;13.35;;;9.70;;
15553;SDS011;7878;44.632;10.942;2023-03-14T09:10:03;11.00;;;9.10;;
15553;SDS011;7878;44.632;10.942;2023-03-14T09:12:30;11.07;;;8.20;;
15553;SDS011;7878;44.632;10.942;2023-03-14T09:14:55;15.90;;;8.30;;
15553;SDS011;7878;44.632;10.942;2023-03-14T09:17:21;9.48;;;6.68;;
15553;SDS011;7878;44.632;10.942;2023-03-14T09:19:47;14.73;;;7.03;;
15553;SDS011;7878;44.632;10.942;2023-03-14T09:22:12;9.20;;;7.10;;
15553;SDS011;7878;44.632;10.942;2023-03-14T09:24:39;8.98;;;5.75;;
15553;SDS011;7878;44.632;10.942;2023-03-14T09:27:05;9.77;;;6.15;;
15553;SDS011;7878;44.632;10.942;2023-03-14T09:29:32;8.70;;;5.50;;
15553;SDS011;7878;44.632;10.942;2023-03-14T09:31:58;11.05;;;7.28;;
15553;SDS011;7878;44.632;10.942;2023-03-14T09:34:24;12.30;;;6.40;;
15553;SDS011;7878;44.632;10.942;2023-03-14T09:36:50;9.75;;;7.68;;
15553;SDS011;7878;44.632;10.942;2023-03-14T09:39:15;7.85;;;5.80;;
15553;SDS011;7878;44.632;10.942;2023-03-14T09:41:46;6.38;;;5.50;;
15553;SDS011;7878;44.632;10.942;2023-03-14T09:44:15;7.57;;;5.35;;
15553;SDS011;7878;44.632;10.942;2023-03-14T09:46:49;7.03;;;6.00;;
15553;SDS011;7878;44.632;10.942;2023-03-14T09:49:22;9.07;;;6.30;;
15553;SDS011;7878;44.632;10.942;2023-03-14T09:51:53;7.82;;;5.05;;
15553;SDS011;7878;44.632;10.942;2023-03-14T09:54:37;9.70;;;5.55;;
15553;SDS011;7878;44.632;10.942;2023-03-14T09:57:09;9.05;;;5.90;;
15553;SDS011;7878;44.632;10.942;2023-03-14T09:59:38;15.18;;;6.50;;
15553;SDS011;7878;44.632;10.942;2023-03-14T10:02:14;7.85;;;6.00;;
15553;SDS011;7878;44.632;10.942;2023-03-14T10:04:43;8.43;;;5.07;;
15553;SDS011;7878;44.632;10.942;2023-03-14T10:07:15;9.65;;;5.30;;
15553;SDS011;7878;44.632;10.942;2023-03-14T10:09:45;7.90;;;4.80;;
15553;SDS011;7878;44.632;10.942;2023-03-14T10:12:13;5.90;;;4.57;;
15553;SDS011;7878;44.632;10.942;2023-03-14T10:14:51;8.45;;;4.43;;
15553;SDS011;7878;44.632;10.942;2023-03-14T10:17:19;9.48;;;4.07;;
15553;SDS011;7878;44.632;10.942;2023-03-14T10:22:18;8.32;;;4.10;;
15553;SDS011;7878;44.632;10.942;2023-03-14T10:24:46;4.63;;;3.50;;
15553;SDS011;7878;44.632;10.942;2023-03-14T10:27:21;8.20;;;3.30;;
15553;SDS011;7878;44.632;10.942;2023-03-14T10:29:54;6.30;;;3.75;;
15553;SDS011;7878;44.632;10.942;2023-03-14T10:32:23;8.52;;;3.53;;
15553;SDS011;7878;44.632;10.942;2023-03-14T10:37:53;8.27;;;3.90;;
15553;SDS011;7878;44.632;10.942;2023-03-14T10:40:39;7.30;;;4.30;;
15553;SDS011;7878;44.632;10.942;2023-03-14T10:43:11;8.27;;;3.67;;
15553;SDS011;7878;44.632;10.942;2023-03-14T10:45:41;7.20;;;3.97;;
15553;SDS011;7878;44.632;10.942;2023-03-14T10:53:24;9.73;;;4.10;;
15553;SDS011;7878;44.632;10.942;2023-03-14T10:55:50;6.35;;;3.85;;
15553;SDS011;7878;44.632;10.942;2023-03-14T10:58:17;5.70;;;4.40;;
15553;SDS011;7878;44.632;10.942;2023-03-14T11:00:50;9.77;;;5.38;;
15553;SDS011;7878;44.632;10.942;2023-03-14T11:03:37;11.55;;;5.88;;
15553;SDS011;7878;44.632;10.942;2023-03-14T11:06:14;8.45;;;5.65;;
15553;SDS011;7878;44.632;10.942;2023-03-14T11:08:48;10.13;;;6.47;;
15553;SDS011;7878;44.632;10.942;2023-03-14T11:11:22;10.02;;;5.88;;
15553;SDS011;7878;44.632;10.942;2023-03-14T11:14:08;9.23;;;4.30;;
15553;SDS011;7878;44.632;10.942;2023-03-14T11:17:00;5.63;;;3.25;;
15553;SDS011;7878;44.632;10.942;2023-03-14T11:22:13;6.68;;;3.08;;
15553;SDS011;7878;44.632;10.942;2023-03-14T11:27:41;5.60;;;2.92;;
15553;SDS011;7878;44.632;10.942;2023-03-14T11:30:25;5.90;;;2.83;;
15553;SDS011;7878;44.632;10.942;2023-03-14T11:38:49;7.63;;;3.95;;
15553;SDS011;7878;44.632;10.942;2023-03-14T11:41:25;7.90;;;4.45;;
15553;SDS011;7878;44.632;10.942;2023-03-14T11:43:57;8.30;;;4.50;;
15553;SDS011;7878;44.632;10.942;2023-03-14T11:46:29;6.40;;;4.50;;
15553;SDS011;7878;44.632;10.942;2023-03-14T11:49:22;10.57;;;5.50;;
15553;SDS011;7878;44.632;10.942;2023-03-14T11:52:05;14.82;;;6.38;;
15553;SDS011;7878;44.632;10.942;2023-03-14T11:54:44;9.50;;;6.05;;
15553;SDS011;7878;44.632;10.942;2023-03-14T11:57:21;10.30;;;6.32;;
15553;SDS011;7878;44.632;10.942;2023-03-14T12:10:54;5.47;;;4.28;;
15553;SDS011;7878;44.632;10.942;2023-03-14T12:13:24;7.22;;;4.45;;
15553;SDS011;7878;44.632;10.942;2023-03-14T12:15:58;7.22;;;3.90;;
15553;SDS011;7878;44.632;10.942;2023-03-14T12:18:29;7.00;;;3.95;;
15553;SDS011;7878;44.632;10.942;2023-03-14T12:20:59;9.80;;;4.55;;
15553;SDS011;7878;44.632;10.942;2023-03-14T12:23:28;7.18;;;4.88;;
15553;SDS011;7878;44.632;10.942;2023-03-14T12:28:38;5.60;;;4.10;;
15553;SDS011;7878;44.632;10.942;2023-03-14T12:42:51;9.05;;;4.88;;
15553;SDS011;7878;44.632;10.942;2023-03-14T12:45:13;8.90;;;4.75;;
15553;SDS011;7878;44.632;10.942;2023-03-14T12:50:12;8.75;;;4.88;;
15553;SDS011;7878;44.632;10.942;2023-03-14T12:55:17;9.93;;;5.05;;
15553;SDS011;7878;44.632;10.942;2023-03-14T13:00:23;7.82;;;4.25;;
15553;SDS011;7878;44.632;10.942;2023-03-14T13:02:58;7.05;;;4.00;;
15553;SDS011;7878;44.632;10.942;2023-03-14T13:05:37;5.38;;;3.30;;
15553;SDS011;7878;44.632;10.942;2023-03-14T13:11:07;6.43;;;3.80;;
15553;SDS011;7878;44.632;10.942;2023-03-14T13:13:41;9.75;;;3.53;;
15553;SDS011;7878;44.632;10.942;2023-03-14T13:16:12;7.22;;;3.40;;
15553;SDS011;7878;44.632;10.942;2023-03-14T13:18:43;5.75;;;3.95;;
15553;SDS011;7878;44.632;10.942;2023-03-14T13:23:58;7.30;;;3.65;;
15553;SDS011;7878;44.632;10.942;2023-03-14T13:26:26;5.05;;;3.28;;
15553;SDS011;7878;44.632;10.942;2023-03-14T13:28:59;5.43;;;2.90;;
15553;SDS011;7878;44.632;10.942;2023-03-14T13:31:25;5.18;;;3.03;;
15553;SDS011;7878;44.632;10.942;2023-03-14T13:33:58;4.47;;;2.50;;
15553;SDS011;7878;44.632;10.942;2023-03-14T13:36:30;3.85;;;2.92;;
15553;SDS011;7878;44.632;10.942;2023-03-14T13:38:59;5.28;;;2.85;;
15553;SDS011;7878;44.632;10.942;2023-03-14T13:41:26;6.03;;;3.63;;
15553;SDS011;7878;44.632;10.942;2023-03-14T13:43:57;4.15;;;3.00;;
15553;SDS011;7878;44.632;10.942;2023-03-14T13:46:34;6.32;;;3.72;;
15553;SDS011;7878;44.632;10.942;2023-03-14T13:49:02;8.60;;;3.80;;
15553;SDS011;7878;44.632;10.942;2023-03-14T13:51:30;4.45;;;3.25;;
15553;SDS011;7878;44.632;10.942;2023-03-14T13:53:59;7.10;;;3.97;;
15553;SDS011;7878;44.632;10.942;2023-03-14T13:56:30;5.50;;;4.10;;
15553;SDS011;7878;44.632;10.942;2023-03-14T13:58:57;6.28;;;3.67;;
15553;SDS011;7878;44.632;10.942;2023-03-14T14:01:33;5.20;;;3.92;;
15553;SDS011;7878;44.632;10.942;2023-03-14T14:04:07;6.13;;;4.45;;
15553;SDS011;7878;44.632;10.942;2023-03-14T14:06:39;5.88;;;4.50;;
15553;SDS011;7878;44.632;10.942;2023-03-14T14:09:26;5.65;;;4.25;;
15553;SDS011;7878;44.632;10.942;2023-03-14T14:12:01;7.00;;;4.30;;
15553;SDS011;7878;44.632;10.942;2023-03-14T14:17:06;10.63;;;4.65;;
15553;SDS011;7878;44.632;10.942;2023-03-14T14:19:35;37.20;;;7.75;;
15553;SDS011;7878;44.632;10.942;2023-03-14T14:22:02;8.23;;;4.75;;
15553;SDS011;7878;44.632;10.942;2023-03-14T14:24:30;11.55;;;5.18;;
15553;SDS011;7878;44.632;10.942;2023-03-14T14:27:01;11.93;;;5.93;;
15553;SDS011;7878;44.632;10.942;2023-03-14T14:29:37;7.97;;;5.10;;
15553;SDS011;7878;44.632;10.942;2023-03-14T14:34:41;7.68;;;4.90;;
15553;SDS011;7878;44.632;10.942;2023-03-14T14:37:23;8.85;;;6.05;;
15553;SDS011;7878;44.632;10.942;2023-03-14T14:39:52;5.75;;;5.10;;
15553;SDS011;7878;44.632;10.942;2023-03-14T14:42:20;7.93;;;5.60;;
15553;SDS011;7878;44.632;10.942;2023-03-14T14:44:50;8.73;;;5.80;;
15553;SDS011;7878;44.632;10.942;2023-03-14T14:47:21;9.75;;;5.38;;
15553;SDS011;7878;44.632;10.942;2023-03-14T14:49:49;8.25;;;5.43;;
15553;SDS011;7878;44.632;10.942;2023-03-14T14:52:18;5.90;;;4.25;;
15553;SDS011;7878;44.632;10.942;2023-03-14T14:55:38;7.93;;;5.15;;
15553;SDS011;7878;44.632;10.942;2023-03-14T14:57:58;10.05;;;5.50;;
15553;SDS011;7878;44.632;10.942;2023-03-14T15:00:39;8.35;;;6.03;;
15553;SDS011;7878;44.632;10.942;2023-03-14T15:03:10;11.13;;;5.75;;
15553;SDS011;7878;44.632;10.942;2023-03-14T15:05:39;8.82;;;5.60;;
15553;SDS011;7878;44.632;10.942;2023-03-14T15:08:11;7.93;;;5.03;;
15553;SDS011;7878;44.632;10.942;2023-03-14T15:10:36;7.72;;;5.57;;
15553;SDS011;7878;44.632;10.942;2023-03-14T15:13:02;7.90;;;5.82;;
15553;SDS011;7878;44.632;10.942;2023-03-14T15:15:28;7.10;;;5.28;;
15553;SDS011;7878;44.632;10.942;2023-03-14T15:17:54;9.45;;;4.78;;
15553;SDS011;7878;44.632;10.942;2023-03-14T15:20:19;6.93;;;4.53;;
15553;SDS011;7878;44.632;10.942;2023-03-14T15:22:48;7.10;;;5.03;;
15553;SDS011;7878;44.632;10.942;2023-03-14T15:25:14;18.08;;;6.30;;
15553;SDS011;7878;44.632;10.942;2023-03-14T15:27:40;10.27;;;5.70;;
15553;SDS011;7878;44.632;10.942;2023-03-14T15:30:14;6.57;;;5.30;;
15553;SDS011;7878;44.632;10.942;2023-03-14T15:32:41;6.90;;;5.35;;
15553;SDS011;7878;44.632;10.942;2023-03-14T15:35:07;12.52;;;5.72;;
15553;SDS011;7878;44.632;10.942;2023-03-14T15:37:33;6.38;;;5.10;;
15553;SDS011;7878;44.632;10.942;2023-03-14T15:40:00;9.63;;;6.15;;
15553;SDS011;7878;44.632;10.942;2023-03-14T15:42:28;8.15;;;5.38;;
15553;SDS011;7878;44.632;10.942;2023-03-14T15:44:53;14.23;;;6.00;;
15553;SDS011;7878;44.632;10.942;2023-03-14T15:47:19;7.68;;;5.70;;
15553;SDS011;7878;44.632;10.942;2023-03-14T15:49:45;9.85;;;6.60;;
15553;SDS011;7878;44.632;10.942;2023-03-14T15:52:10;10.50;;;6.10;;
15553;SDS011;7878;44.632;10.942;2023-03-14T15:54:36;13.13;;;5.75;;
15553;SDS011;7878;44.632;10.942;2023-03-14T15:57:02;10.43;;;6.43;;